sensor_id;sensor_type;location;lat;lon;timestamp;P1;durP1;ratioP1;P2;durP2;ratioP2
31732;SDS011;18312;51.486;7.144;2024-02-21T00:01:31;1241.45;;;999.90;;
31732;SDS011;18312;51.486;7.144;2024-02-21T00:03:58;1237.20;;;999.90;;
31732;SDS011;18312;51.486;7.144;2024-02-21T00:06:25;1238.35;;;999.90;;
31732;SDS011;18312;51.486;7.144;2024-02-21T00:08:52;1238.90;;;999.90;;
31732;SDS011;18312;51.486;7.144;2024-02-21T00:11:19;1240.10;;;999.90;;
31732;SDS011;18312;51.486;7.144;2024-02-21T00:13:46;1239.38;;;999.90;;
31732;SDS011;18312;51.486;7.144;2024-02-21T00:16:13;1237.30;;;999.90;;
31732;SDS011;18312;51.486;7.144;2024-02-21T00:18:42;1236.37;;;999.90;;
31732;SDS011;18312;51.486;7.144;2024-02-21T00:21:15;1235.25;;;999.90;;
31732;SDS011;18312;51.486;7.144;2024-02-21T00:23:44;1235.72;;;999.90;;
31732;SDS011;18312;51.486;7.144;2024-02-21T00:26:12;1235.72;;;999.90;;
31732;SDS011;18312;51.486;7.144;2024-02-21T00:28:39;1233.68;;;999.90;;
31732;SDS011;18312;51.486;7.144;2024-02-21T00:31:06;1236.78;;;999.90;;
31732;SDS011;18312;51.486;7.144;2024-02-21T00:33:33;1237.95;;;999.90;;
31732;SDS011;18312;51.486;7.144;2024-02-21T00:36:02;1299.53;;;999.90;;
31732;SDS011;18312;51.486;7.144;2024-02-21T00:38:29;1237.90;;;999.90;;
31732;SDS011;18312;51.486;7.144;2024-02-21T00:40:56;1239.30;;;999.90;;
31732;SDS011;18312;51.486;7.144;2024-02-21T00:43:23;1236.60;;;999.90;;
31732;SDS011;18312;51.486;7.144;2024-02-21T00:45:50;1239.00;;;999.90;;
31732;SDS011;18312;51.486;7.144;2024-02-21T00:48:17;1236.47;;;999.90;;
31732;SDS011;18312;51.486;7.144;2024-02-21T00:50:44;1232.00;;;999.90;;
31732;SDS011;18312;51.486;7.144;2024-02-21T00:53:13;1236.57;;;999.90;;
31732;SDS011;18312;51.486;7.144;2024-02-21T00:55:40;1233.90;;;999.90;;
31732;SDS011;18312;51.486;7.144;2024-02-21T00:58:08;1234.65;;;999.90;;
31732;SDS011;18312;51.486;7.144;2024-02-21T01:00:35;1239.32;;;999.90;;
31732;SDS011;18312;51.486;7.144;2024-02-21T01:03:02;1240.50;;;999.90;;
31732;SDS011;18312;51.486;7.144;2024-02-21T01:05:30;1237.07;;;999.90;;
31732;SDS011;18312;51.486;7.144;2024-02-21T01:07:58;1238.28;;;999.90;;
31732;SDS011;18312;51.486;7.144;2024-02-21T01:10:26;1233.95;;;999.90;;
31732;SDS011;18312;51.486;7.144;2024-02-21T01:12:54;1237.45;;;999.90;;
31732;SDS011;18312;51.486;7.144;2024-02-21T01:15:21;1241.97;;;999.90;;
31732;SDS011;18312;51.486;7.144;2024-02-21T01:17:48;1235.22;;;999.90;;
31732;SDS011;18312;51.486;7.144;2024-02-21T01:20:20;1235.47;;;999.90;;
31732;SDS011;18312;51.486;7.144;2024-02-21T01:22:47;1237.00;;;999.90;;
31732;SDS011;18312;51.486;7.144;2024-02-21T01:25:17;1238.18;;;999.90;;
31732;SDS011;18312;51.486;7.144;2024-02-21T01:27:45;1236.50;;;999.90;;
31732;SDS011;18312;51.486;7.144;2024-02-21T01:30:13;1236.13;;;999.90;;
31732;SDS011;18312;51.486;7.144;2024-02-21T01:32:40;1236.50;;;999.90;;
31732;SDS011;18312;51.486;7.144;2024-02-21T01:35:08;1237.65;;;999.90;;
31732;SDS011;18312;51.486;7.144;2024-02-21T01:37:35;1239.65;;;999.90;;
31732;SDS011;18312;51.486;7.144;2024-02-21T01:40:02;1235.28;;;999.90;;
31732;SDS011;18312;51.486;7.144;2024-02-21T01:42:30;1236.15;;;999.90;;
31732;SDS011;18312;51.486;7.144;2024-02-21T01:44:59;1237.03;;;999.90;;
31732;SDS011;18312;51.486;7.144;2024-02-21T01:47:26;1236.82;;;999.90;;
31732;SDS011;18312;51.486;7.144;2024-02-21T01:49:53;1244.55;;;999.90;;
31732;SDS011;18312;51.486;7.144;2024-02-21T01:52:21;1242.25;;;999.90;;
31732;SDS011;18312;51.486;7.144;2024-02-21T01:54:48;1240.45;;;999.90;;
31732;SDS011;18312;51.486;7.144;2024-02-21T01:57:15;1254.35;;;999.90;;
31732;SDS011;18312;51.486;7.144;2024-02-21T01:59:42;1248.73;;;999.90;;
31732;SDS011;18312;51.486;7.144;2024-02-21T02:02:12;1243.20;;;999.90;;
31732;SDS011;18312;51.486;7.144;2024-02-21T02:04:40;1241.45;;;999.90;;
31732;SDS011;18312;51.486;7.144;2024-02-21T02:07:13;1245.90;;;999.90;;
31732;SDS011;18312;51.486;7.144;2024-02-21T02:09:41;1239.38;;;999.90;;
31732;SDS011;18312;51.486;7.144;2024-02-21T02:12:08;1243.10;;;999.90;;
31732;SDS011;18312;51.486;7.144;2024-02-21T02:14:37;1236.15;;;999.90;;
31732;SDS011;18312;51.486;7.144;2024-02-21T02:17:04;1249.22;;;999.90;;
31732;SDS011;18312;51.486;7.144;2024-02-21T02:19:33;1240.73;;;999.90;;
31732;SDS011;18312;51.486;7.144;2024-02-21T02:22:02;1238.68;;;999.90;;
31732;SDS011;18312;51.486;7.144;2024-02-21T02:24:36;1247.18;;;999.90;;
31732;SDS011;18312;51.486;7.144;2024-02-21T02:27:03;1257.32;;;999.90;;
31732;SDS011;18312;51.486;7.144;2024-02-21T02:29:31;1242.63;;;999.90;;
31732;SDS011;18312;51.486;7.144;2024-02-21T02:31:59;1286.15;;;999.90;;
31732;SDS011;18312;51.486;7.144;2024-02-21T02:34:29;1235.97;;;999.90;;
31732;SDS011;18312;51.486;7.144;2024-02-21T02:36:56;1240.88;;;999.90;;
31732;SDS011;18312;51.486;7.144;2024-02-21T02:39:23;1242.68;;;999.90;;
31732;SDS011;18312;51.486;7.144;2024-02-21T02:41:52;1249.13;;;999.90;;
31732;SDS011;18312;51.486;7.144;2024-02-21T02:44:19;1249.43;;;999.90;;
31732;SDS011;18312;51.486;7.144;2024-02-21T02:46:46;1252.63;;;999.90;;
31732;SDS011;18312;51.486;7.144;2024-02-21T02:49:13;1240.33;;;999.90;;
31732;SDS011;18312;51.486;7.144;2024-02-21T02:51:41;1249.30;;;999.90;;
31732;SDS011;18312;51.486;7.144;2024-02-21T02:54:10;1254.05;;;999.90;;
31732;SDS011;18312;51.486;7.144;2024-02-21T02:56:38;1246.70;;;999.90;;
31732;SDS011;18312;51.486;7.144;2024-02-21T02:59:06;1245.57;;;999.90;;
31732;SDS011;18312;51.486;7.144;2024-02-21T03:01:35;1251.78;;;999.90;;
31732;SDS011;18312;51.486;7.144;2024-02-21T03:04:03;1248.65;;;999.90;;
31732;SDS011;18312;51.486;7.144;2024-02-21T03:06:33;1253.45;;;999.90;;
31732;SDS011;18312;51.486;7.144;2024-02-21T03:09:00;1304.63;;;999.90;;
31732;SDS011;18312;51.486;7.144;2024-02-21T03:11:33;1246.82;;;999.90;;
31732;SDS011;18312;51.486;7.144;2024-02-21T03:14:03;1246.90;;;999.90;;
31732;SDS011;18312;51.486;7.144;2024-02-21T03:16:31;1251.15;;;999.90;;
31732;SDS011;18312;51.486;7.144;2024-02-21T03:18:58;1254.97;;;999.90;;
31732;SDS011;18312;51.486;7.144;2024-02-21T03:21:25;1246.10;;;999.90;;
31732;SDS011;18312;51.486;7.144;2024-02-21T03:23:52;1265.68;;;999.90;;
31732;SDS011;18312;51.486;7.144;2024-02-21T03:26:20;1257.90;;;999.90;;
31732;SDS011;18312;51.486;7.144;2024-02-21T03:28:49;1252.80;;;999.90;;
31732;SDS011;18312;51.486;7.144;2024-02-21T03:31:17;1243.65;;;999.90;;
31732;SDS011;18312;51.486;7.144;2024-02-21T03:33:45;1246.95;;;999.90;;
31732;SDS011;18312;51.486;7.144;2024-02-21T03:36:13;1247.88;;;999.90;;
31732;SDS011;18312;51.486;7.144;2024-02-21T03:38:40;1256.57;;;999.90;;
31732;SDS011;18312;51.486;7.144;2024-02-21T03:41:09;1242.20;;;999.90;;
31732;SDS011;18312;51.486;7.144;2024-02-21T03:43:37;1294.50;;;999.90;;
31732;SDS011;18312;51.486;7.144;2024-02-21T03:46:04;1261.93;;;999.90;;
31732;SDS011;18312;51.486;7.144;2024-02-21T03:48:32;1265.13;;;999.90;;
31732;SDS011;18312;51.486;7.144;2024-02-21T03:51:00;1247.40;;;999.90;;
31732;SDS011;18312;51.486;7.144;2024-02-21T03:53:28;1251.20;;;999.90;;
31732;SDS011;18312;51.486;7.144;2024-02-21T03:55:55;1253.70;;;999.90;;
31732;SDS011;18312;51.486;7.144;2024-02-21T03:58:28;1253.18;;;999.90;;
31732;SDS011;18312;51.486;7.144;2024-02-21T04:00:55;1253.05;;;999.90;;
31732;SDS011;18312;51.486;7.144;2024-02-21T04:03:22;1241.00;;;999.90;;
31732;SDS011;18312;51.486;7.144;2024-02-21T04:05:49;1255.27;;;999.90;;
31732;SDS011;18312;51.486;7.144;2024-02-21T04:08:17;1251.13;;;999.90;;
31732;SDS011;18312;51.486;7.144;2024-02-21T04:10:44;1250.75;;;999.90;;
31732;SDS011;18312;51.486;7.144;2024-02-21T04:13:11;1243.03;;;999.90;;
31732;SDS011;18312;51.486;7.144;2024-02-21T04:15:38;1244.18;;;999.90;;
31732;SDS011;18312;51.486;7.144;2024-02-21T04:18:06;1259.00;;;999.90;;
31732;SDS011;18312;51.486;7.144;2024-02-21T04:20:33;1245.82;;;999.90;;
31732;SDS011;18312;51.486;7.144;2024-02-21T04:23:01;1241.80;;;999.90;;
31732;SDS011;18312;51.486;7.144;2024-02-21T04:25:29;1241.85;;;999.90;;
31732;SDS011;18312;51.486;7.144;2024-02-21T04:27:56;1252.05;;;999.90;;
31732;SDS011;18312;51.486;7.144;2024-02-21T04:30:24;1245.85;;;999.90;;
31732;SDS011;18312;51.486;7.144;2024-02-21T04:32:51;1245.70;;;999.90;;
31732;SDS011;18312;51.486;7.144;2024-02-21T04:35:20;1240.60;;;999.90;;
31732;SDS011;18312;51.486;7.144;2024-02-21T04:37:48;1240.90;;;999.90;;
31732;SDS011;18312;51.486;7.144;2024-02-21T04:40:15;1248.15;;;999.90;;
31732;SDS011;18312;51.486;7.144;2024-02-21T04:42:44;1239.55;;;999.90;;
31732;SDS011;18312;51.486;7.144;2024-02-21T04:45:12;1240.28;;;999.90;;
31732;SDS011;18312;51.486;7.144;2024-02-21T04:47:39;1248.68;;;999.90;;
31732;SDS011;18312;51.486;7.144;2024-02-21T04:50:06;1239.33;;;999.90;;
31732;SDS011;18312;51.486;7.144;2024-02-21T04:52:33;1242.22;;;999.90;;
31732;SDS011;18312;51.486;7.144;2024-02-21T04:55:00;1240.20;;;999.90;;
31732;SDS011;18312;51.486;7.144;2024-02-21T04:57:27;1232.65;;;999.90;;
31732;SDS011;18312;51.486;7.144;2024-02-21T04:59:55;1237.88;;;999.90;;
31732;SDS011;18312;51.486;7.144;2024-02-21T05:02:23;1236.70;;;999.90;;
31732;SDS011;18312;51.486;7.144;2024-02-21T05:04:52;1255.30;;;999.90;;
31732;SDS011;18312;51.486;7.144;2024-02-21T05:07:19;1233.13;;;999.90;;
31732;SDS011;18312;51.486;7.144;2024-02-21T05:09:46;1234.20;;;999.90;;
31732;SDS011;18312;51.486;7.144;2024-02-21T05:12:13;1240.47;;;999.90;;
31732;SDS011;18312;51.486;7.144;2024-02-21T05:14:40;1242.35;;;999.90;;
31732;SDS011;18312;51.486;7.144;2024-02-21T05:17:08;1236.55;;;999.90;;
31732;SDS011;18312;51.486;7.144;2024-02-21T05:19:35;1251.85;;;999.90;;
31732;SDS011;18312;51.486;7.144;2024-02-21T05:22:02;1236.85;;;999.90;;
31732;SDS011;18312;51.486;7.144;2024-02-21T05:24:30;1246.90;;;999.90;;
31732;SDS011;18312;51.486;7.144;2024-02-21T05:26:56;1231.55;;;999.90;;
31732;SDS011;18312;51.486;7.144;2024-02-21T05:29:24;1237.40;;;999.90;;
31732;SDS011;18312;51.486;7.144;2024-02-21T05:31:56;1234.80;;;999.90;;
31732;SDS011;18312;51.486;7.144;2024-02-21T05:34:25;1238.57;;;999.90;;
31732;SDS011;18312;51.486;7.144;2024-02-21T05:36:52;1234.22;;;999.90;;
31732;SDS011;18312;51.486;7.144;2024-02-21T05:39:19;1240.32;;;999.90;;
31732;SDS011;18312;51.486;7.144;2024-02-21T05:41:49;1264.40;;;999.90;;
31732;SDS011;18312;51.486;7.144;2024-02-21T05:44:18;1240.32;;;999.90;;
31732;SDS011;18312;51.486;7.144;2024-02-21T05:46:47;1235.97;;;999.90;;
31732;SDS011;18312;51.486;7.144;2024-02-21T05:49:14;1238.78;;;999.90;;
31732;SDS011;18312;51.486;7.144;2024-02-21T05:51:42;1236.97;;;999.90;;
31732;SDS011;18312;51.486;7.144;2024-02-21T05:54:09;1230.90;;;999.90;;
31732;SDS011;18312;51.486;7.144;2024-02-21T05:56:36;1231.68;;;999.90;;
31732;SDS011;18312;51.486;7.144;2024-02-21T05:59:03;1233.35;;;999.90;;
31732;SDS011;18312;51.486;7.144;2024-02-21T06:01:30;1319.90;;;999.90;;
31732;SDS011;18312;51.486;7.144;2024-02-21T06:03:58;1302.88;;;999.90;;
31732;SDS011;18312;51.486;7.144;2024-02-21T06:06:26;1289.03;;;999.90;;
31732;SDS011;18312;51.486;7.144;2024-02-21T06:08:55;1238.70;;;999.90;;
31732;SDS011;18312;51.486;7.144;2024-02-21T06:11:23;1238.80;;;999.90;;
31732;SDS011;18312;51.486;7.144;2024-02-21T06:13:50;1270.25;;;999.90;;
31732;SDS011;18312;51.486;7.144;2024-02-21T06:16:17;1233.40;;;999.90;;
31732;SDS011;18312;51.486;7.144;2024-02-21T06:21:19;1346.57;;;999.90;;
31732;SDS011;18312;51.486;7.144;2024-02-21T06:23:45;1243.65;;;999.90;;
31732;SDS011;18312;51.486;7.144;2024-02-21T06:26:14;1238.00;;;999.90;;
31732;SDS011;18312;51.486;7.144;2024-02-21T06:28:41;1233.60;;;999.90;;
31732;SDS011;18312;51.486;7.144;2024-02-21T06:31:08;1236.65;;;999.90;;
31732;SDS011;18312;51.486;7.144;2024-02-21T06:33:34;1239.90;;;999.90;;
31732;SDS011;18312;51.486;7.144;2024-02-21T06:36:01;1232.00;;;999.90;;
31732;SDS011;18312;51.486;7.144;2024-02-21T06:38:29;1232.72;;;999.90;;
31732;SDS011;18312;51.486;7.144;2024-02-21T06:40:56;1244.05;;;999.90;;
31732;SDS011;18312;51.486;7.144;2024-02-21T06:43:25;1248.88;;;999.90;;
31732;SDS011;18312;51.486;7.144;2024-02-21T06:45:52;1238.13;;;999.90;;
31732;SDS011;18312;51.486;7.144;2024-02-21T06:48:20;1229.78;;;999.90;;
31732;SDS011;18312;51.486;7.144;2024-02-21T06:50:47;1228.37;;;999.90;;
31732;SDS011;18312;51.486;7.144;2024-02-21T06:53:14;1233.67;;;999.90;;
31732;SDS011;18312;51.486;7.144;2024-02-21T06:55:41;1232.43;;;999.90;;
31732;SDS011;18312;51.486;7.144;2024-02-21T06:58:08;1232.53;;;999.90;;
31732;SDS011;18312;51.486;7.144;2024-02-21T07:00:38;1239.40;;;999.90;;
31732;SDS011;18312;51.486;7.144;2024-02-21T07:03:07;1239.65;;;999.90;;
31732;SDS011;18312;51.486;7.144;2024-02-21T07:05:34;1254.22;;;999.90;;
31732;SDS011;18312;51.486;7.144;2024-02-21T07:08:02;1257.00;;;999.90;;
31732;SDS011;18312;51.486;7.144;2024-02-21T07:10:29;1340.45;;;999.90;;
31732;SDS011;18312;51.486;7.144;2024-02-21T07:12:56;1333.88;;;999.90;;
31732;SDS011;18312;51.486;7.144;2024-02-21T07:15:23;1308.20;;;999.90;;
31732;SDS011;18312;51.486;7.144;2024-02-21T07:17:55;1343.88;;;999.90;;
31732;SDS011;18312;51.486;7.144;2024-02-21T07:20:22;1336.47;;;999.90;;
31732;SDS011;18312;51.486;7.144;2024-02-21T07:22:50;1338.07;;;999.90;;
31732;SDS011;18312;51.486;7.144;2024-02-21T07:25:17;1349.32;;;999.90;;
31732;SDS011;18312;51.486;7.144;2024-02-21T07:27:44;1336.50;;;999.90;;
31732;SDS011;18312;51.486;7.144;2024-02-21T07:30:11;1337.43;;;999.90;;
31732;SDS011;18312;51.486;7.144;2024-02-21T07:32:39;1356.63;;;999.90;;
31732;SDS011;18312;51.486;7.144;2024-02-21T07:35:07;1350.60;;;999.90;;
31732;SDS011;18312;51.486;7.144;2024-02-21T07:37:36;1323.47;;;999.90;;
31732;SDS011;18312;51.486;7.144;2024-02-21T07:40:04;1339.57;;;999.90;;
31732;SDS011;18312;51.486;7.144;2024-02-21T07:42:32;1335.53;;;999.90;;
31732;SDS011;18312;51.486;7.144;2024-02-21T07:44:59;1353.23;;;999.90;;
31732;SDS011;18312;51.486;7.144;2024-02-21T07:47:26;1323.93;;;999.90;;
31732;SDS011;18312;51.486;7.144;2024-02-21T07:49:54;1335.43;;;999.90;;
31732;SDS011;18312;51.486;7.144;2024-02-21T07:52:22;1326.17;;;999.90;;
31732;SDS011;18312;51.486;7.144;2024-02-21T07:54:50;1336.28;;;999.90;;
31732;SDS011;18312;51.486;7.144;2024-02-21T07:57:17;1351.55;;;999.90;;
31732;SDS011;18312;51.486;7.144;2024-02-21T07:59:45;1325.30;;;999.90;;
31732;SDS011;18312;51.486;7.144;2024-02-21T08:02:14;1347.88;;;999.90;;
31732;SDS011;18312;51.486;7.144;2024-02-21T08:04:41;1351.53;;;999.90;;
31732;SDS011;18312;51.486;7.144;2024-02-21T08:07:08;1356.43;;;999.90;;
31732;SDS011;18312;51.486;7.144;2024-02-21T08:09:39;1351.60;;;999.90;;
31732;SDS011;18312;51.486;7.144;2024-02-21T08:12:06;1339.25;;;999.90;;
31732;SDS011;18312;51.486;7.144;2024-02-21T08:14:33;1336.20;;;999.90;;
31732;SDS011;18312;51.486;7.144;2024-02-21T08:17:00;1344.77;;;999.90;;
31732;SDS011;18312;51.486;7.144;2024-02-21T08:19:29;1364.05;;;999.90;;
31732;SDS011;18312;51.486;7.144;2024-02-21T08:21:56;1367.80;;;999.90;;
31732;SDS011;18312;51.486;7.144;2024-02-21T08:24:23;1347.15;;;999.90;;
31732;SDS011;18312;51.486;7.144;2024-02-21T08:26:51;1352.88;;;999.90;;
31732;SDS011;18312;51.486;7.144;2024-02-21T08:29:18;1368.45;;;999.90;;
31732;SDS011;18312;51.486;7.144;2024-02-21T08:31:45;1344.57;;;999.90;;
31732;SDS011;18312;51.486;7.144;2024-02-21T08:34:12;1353.37;;;999.90;;
31732;SDS011;18312;51.486;7.144;2024-02-21T08:36:40;1335.97;;;999.90;;
31732;SDS011;18312;51.486;7.144;2024-02-21T08:39:07;1336.80;;;999.90;;
31732;SDS011;18312;51.486;7.144;2024-02-21T08:41:34;1297.07;;;999.90;;
31732;SDS011;18312;51.486;7.144;2024-02-21T08:44:03;1338.03;;;999.90;;
31732;SDS011;18312;51.486;7.144;2024-02-21T08:46:31;1334.80;;;999.90;;
31732;SDS011;18312;51.486;7.144;2024-02-21T08:48:58;1342.18;;;999.90;;
31732;SDS011;18312;51.486;7.144;2024-02-21T08:51:26;1339.57;;;999.90;;
31732;SDS011;18312;51.486;7.144;2024-02-21T08:53:53;1339.50;;;999.90;;
31732;SDS011;18312;51.486;7.144;2024-02-21T08:56:20;1332.07;;;999.90;;
31732;SDS011;18312;51.486;7.144;2024-02-21T08:58:47;1341.88;;;999.90;;
31732;SDS011;18312;51.486;7.144;2024-02-21T09:01:16;1352.63;;;999.90;;
31732;SDS011;18312;51.486;7.144;2024-02-21T09:03:43;1365.37;;;999.90;;
31732;SDS011;18312;51.486;7.144;2024-02-21T09:06:11;1355.60;;;999.90;;
31732;SDS011;18312;51.486;7.144;2024-02-21T09:08:39;1362.90;;;999.90;;
31732;SDS011;18312;51.486;7.144;2024-02-21T09:11:06;1368.18;;;999.90;;
31732;SDS011;18312;51.486;7.144;2024-02-21T09:13:33;1371.43;;;999.90;;
31732;SDS011;18312;51.486;7.144;2024-02-21T09:16:00;1376.93;;;999.90;;
31732;SDS011;18312;51.486;7.144;2024-02-21T09:18:29;1359.50;;;999.90;;
31732;SDS011;18312;51.486;7.144;2024-02-21T09:20:56;1367.17;;;999.90;;
31732;SDS011;18312;51.486;7.144;2024-02-21T09:23:23;1350.68;;;999.90;;
31732;SDS011;18312;51.486;7.144;2024-02-21T09:25:50;1356.82;;;999.90;;
31732;SDS011;18312;51.486;7.144;2024-02-21T09:28:17;1365.45;;;999.90;;
31732;SDS011;18312;51.486;7.144;2024-02-21T09:30:45;1378.82;;;999.90;;
31732;SDS011;18312;51.486;7.144;2024-02-21T09:33:12;1368.30;;;999.90;;
31732;SDS011;18312;51.486;7.144;2024-02-21T09:35:41;1392.85;;;999.90;;
31732;SDS011;18312;51.486;7.144;2024-02-21T09:38:08;1414.10;;;999.90;;
31732;SDS011;18312;51.486;7.144;2024-02-21T09:40:35;1377.57;;;999.90;;
31732;SDS011;18312;51.486;7.144;2024-02-21T09:43:04;1260.35;;;999.90;;
31732;SDS011;18312;51.486;7.144;2024-02-21T09:45:36;1353.75;;;999.90;;
31732;SDS011;18312;51.486;7.144;2024-02-21T09:48:16;1344.73;;;999.90;;
31732;SDS011;18312;51.486;7.144;2024-02-21T09:50:57;1339.18;;;999.90;;
31732;SDS011;18312;51.486;7.144;2024-02-21T09:53:26;1349.75;;;999.90;;
31732;SDS011;18312;51.486;7.144;2024-02-21T09:55:56;1328.45;;;999.90;;
31732;SDS011;18312;51.486;7.144;2024-02-21T09:58:24;1343.70;;;999.90;;
31732;SDS011;18312;51.486;7.144;2024-02-21T10:00:53;1355.35;;;999.90;;
31732;SDS011;18312;51.486;7.144;2024-02-21T10:03:20;1313.30;;;999.90;;
31732;SDS011;18312;51.486;7.144;2024-02-21T10:05:48;1332.50;;;999.90;;
31732;SDS011;18312;51.486;7.144;2024-02-21T10:08:19;1352.25;;;999.90;;
31732;SDS011;18312;51.486;7.144;2024-02-21T10:10:46;1342.87;;;999.90;;
31732;SDS011;18312;51.486;7.144;2024-02-21T10:13:24;1359.53;;;999.90;;
31732;SDS011;18312;51.486;7.144;2024-02-21T10:16:02;1334.72;;;999.90;;
31732;SDS011;18312;51.486;7.144;2024-02-21T10:18:30;1340.05;;;999.90;;
31732;SDS011;18312;51.486;7.144;2024-02-21T10:21:03;1359.65;;;999.90;;
31732;SDS011;18312;51.486;7.144;2024-02-21T10:23:43;1320.03;;;999.90;;
31732;SDS011;18312;51.486;7.144;2024-02-21T10:26:11;1344.30;;;999.90;;
31732;SDS011;18312;51.486;7.144;2024-02-21T10:28:39;1329.97;;;999.90;;
31732;SDS011;18312;51.486;7.144;2024-02-21T10:31:07;1332.68;;;999.90;;
31732;SDS011;18312;51.486;7.144;2024-02-21T10:33:36;1336.17;;;999.90;;
31732;SDS011;18312;51.486;7.144;2024-02-21T10:36:07;1324.90;;;999.90;;
31732;SDS011;18312;51.486;7.144;2024-02-21T10:38:35;1323.43;;;999.90;;
31732;SDS011;18312;51.486;7.144;2024-02-21T10:41:05;1342.43;;;999.90;;
31732;SDS011;18312;51.486;7.144;2024-02-21T10:43:38;1329.85;;;999.90;;
31732;SDS011;18312;51.486;7.144;2024-02-21T10:46:06;1331.80;;;999.90;;
31732;SDS011;18312;51.486;7.144;2024-02-21T10:48:38;1332.70;;;999.90;;
31732;SDS011;18312;51.486;7.144;2024-02-21T10:51:13;1323.50;;;999.90;;
31732;SDS011;18312;51.486;7.144;2024-02-21T10:53:47;1330.60;;;999.90;;
31732;SDS011;18312;51.486;7.144;2024-02-21T10:56:26;1332.80;;;999.90;;
31732;SDS011;18312;51.486;7.144;2024-02-21T10:58:56;1335.30;;;999.90;;
31732;SDS011;18312;51.486;7.144;2024-02-21T11:01:29;1318.97;;;999.90;;
31732;SDS011;18312;51.486;7.144;2024-02-21T11:03:58;1302.85;;;999.90;;
31732;SDS011;18312;51.486;7.144;2024-02-21T11:06:41;1328.78;;;999.90;;
31732;SDS011;18312;51.486;7.144;2024-02-21T11:09:10;1332.78;;;999.90;;
31732;SDS011;18312;51.486;7.144;2024-02-21T11:11:39;1328.73;;;999.90;;
31732;SDS011;18312;51.486;7.144;2024-02-21T11:14:07;1330.93;;;999.90;;
31732;SDS011;18312;51.486;7.144;2024-02-21T11:16:36;1334.50;;;999.90;;
31732;SDS011;18312;51.486;7.144;2024-02-21T11:19:05;1330.80;;;999.90;;
31732;SDS011;18312;51.486;7.144;2024-02-21T11:21:34;1336.50;;;999.90;;
31732;SDS011;18312;51.486;7.144;2024-02-21T11:24:01;1350.03;;;999.90;;
31732;SDS011;18312;51.486;7.144;2024-02-21T11:26:28;1341.00;;;999.90;;
31732;SDS011;18312;51.486;7.144;2024-02-21T11:28:59;1339.93;;;999.90;;
31732;SDS011;18312;51.486;7.144;2024-02-21T11:31:27;1349.47;;;999.90;;
31732;SDS011;18312;51.486;7.144;2024-02-21T11:34:05;1348.32;;;999.90;;
31732;SDS011;18312;51.486;7.144;2024-02-21T11:36:35;1328.68;;;999.90;;
31732;SDS011;18312;51.486;7.144;2024-02-21T11:39:17;1324.72;;;999.90;;
31732;SDS011;18312;51.486;7.144;2024-02-21T11:41:46;1325.82;;;999.90;;
31732;SDS011;18312;51.486;7.144;2024-02-21T11:44:18;1328.30;;;999.90;;
31732;SDS011;18312;51.486;7.144;2024-02-21T11:46:45;1339.45;;;999.90;;
31732;SDS011;18312;51.486;7.144;2024-02-21T11:49:12;1321.22;;;999.90;;
31732;SDS011;18312;51.486;7.144;2024-02-21T11:51:39;1336.93;;;999.90;;
31732;SDS011;18312;51.486;7.144;2024-02-21T11:54:10;1348.03;;;999.90;;
31732;SDS011;18312;51.486;7.144;2024-02-21T11:56:38;1343.35;;;999.90;;
31732;SDS011;18312;51.486;7.144;2024-02-21T11:59:05;1352.75;;;999.90;;
31732;SDS011;18312;51.486;7.144;2024-02-21T12:01:34;1321.32;;;999.90;;
31732;SDS011;18312;51.486;7.144;2024-02-21T12:04:01;1347.82;;;999.90;;
31732;SDS011;18312;51.486;7.144;2024-02-21T12:06:29;1359.35;;;999.90;;
31732;SDS011;18312;51.486;7.144;2024-02-21T12:08:57;1340.72;;;999.90;;
31732;SDS011;18312;51.486;7.144;2024-02-21T12:11:24;1362.30;;;999.90;;
31732;SDS011;18312;51.486;7.144;2024-02-21T12:13:58;1354.88;;;999.90;;
31732;SDS011;18312;51.486;7.144;2024-02-21T12:16:28;1353.85;;;999.90;;
31732;SDS011;18312;51.486;7.144;2024-02-21T12:18:57;1360.95;;;999.90;;
31732;SDS011;18312;51.486;7.144;2024-02-21T12:21:25;1357.40;;;999.90;;
31732;SDS011;18312;51.486;7.144;2024-02-21T12:23:53;1367.13;;;999.90;;
31732;SDS011;18312;51.486;7.144;2024-02-21T12:26:21;1356.50;;;999.90;;
31732;SDS011;18312;51.486;7.144;2024-02-21T12:28:48;1371.17;;;999.90;;
31732;SDS011;18312;51.486;7.144;2024-02-21T12:31:15;1417.53;;;999.90;;
31732;SDS011;18312;51.486;7.144;2024-02-21T12:33:44;1400.45;;;999.90;;
31732;SDS011;18312;51.486;7.144;2024-02-21T12:36:13;1377.50;;;999.90;;
31732;SDS011;18312;51.486;7.144;2024-02-21T12:38:40;1420.47;;;999.90;;
31732;SDS011;18312;51.486;7.144;2024-02-21T12:41:08;1420.35;;;999.90;;
31732;SDS011;18312;51.486;7.144;2024-02-21T12:43:36;1407.55;;;999.90;;
31732;SDS011;18312;51.486;7.144;2024-02-21T12:46:03;1412.82;;;999.90;;
31732;SDS011;18312;51.486;7.144;2024-02-21T12:48:33;1409.45;;;999.90;;
31732;SDS011;18312;51.486;7.144;2024-02-21T12:51:00;1389.18;;;999.90;;
31732;SDS011;18312;51.486;7.144;2024-02-21T12:53:29;1419.03;;;999.90;;
31732;SDS011;18312;51.486;7.144;2024-02-21T12:55:57;1414.43;;;999.90;;
31732;SDS011;18312;51.486;7.144;2024-02-21T12:58:24;1399.97;;;999.90;;
31732;SDS011;18312;51.486;7.144;2024-02-21T13:00:53;1401.53;;;999.90;;
31732;SDS011;18312;51.486;7.144;2024-02-21T13:03:20;1406.78;;;999.90;;
31732;SDS011;18312;51.486;7.144;2024-02-21T13:05:47;1404.70;;;999.90;;
31732;SDS011;18312;51.486;7.144;2024-02-21T13:08:14;1402.07;;;999.90;;
31732;SDS011;18312;51.486;7.144;2024-02-21T13:10:43;1409.72;;;999.90;;
31732;SDS011;18312;51.486;7.144;2024-02-21T13:13:10;1418.18;;;999.90;;
31732;SDS011;18312;51.486;7.144;2024-02-21T13:15:37;1440.97;;;999.90;;
31732;SDS011;18312;51.486;7.144;2024-02-21T13:18:08;1412.13;;;999.90;;
31732;SDS011;18312;51.486;7.144;2024-02-21T13:20:35;1419.78;;;999.90;;
31732;SDS011;18312;51.486;7.144;2024-02-21T13:23:03;1414.53;;;999.90;;
31732;SDS011;18312;51.486;7.144;2024-02-21T13:25:30;1390.82;;;999.90;;
31732;SDS011;18312;51.486;7.144;2024-02-21T13:27:58;1431.13;;;999.90;;
31732;SDS011;18312;51.486;7.144;2024-02-21T13:30:26;1429.97;;;999.90;;
31732;SDS011;18312;51.486;7.144;2024-02-21T13:32:54;1414.22;;;999.90;;
31732;SDS011;18312;51.486;7.144;2024-02-21T13:35:22;1426.60;;;999.90;;
31732;SDS011;18312;51.486;7.144;2024-02-21T13:37:49;1424.38;;;999.90;;
31732;SDS011;18312;51.486;7.144;2024-02-21T13:40:16;1411.90;;;999.90;;
31732;SDS011;18312;51.486;7.144;2024-02-21T13:42:46;1412.22;;;999.90;;
31732;SDS011;18312;51.486;7.144;2024-02-21T13:45:17;1450.65;;;999.90;;
31732;SDS011;18312;51.486;7.144;2024-02-21T13:47:44;1409.55;;;999.90;;
31732;SDS011;18312;51.486;7.144;2024-02-21T13:50:13;1422.50;;;999.90;;
31732;SDS011;18312;51.486;7.144;2024-02-21T13:52:40;1424.93;;;999.90;;